createdAt,value
2023-05-15T00:01:04.511Z,26.06
2023-05-15T00:06:07.447Z,26.01
2023-05-15T00:11:11.829Z,25.98
2023-05-15T00:16:14.665Z,25.91
2023-05-15T00:21:18.061Z,25.85
2023-05-15T00:26:25.193Z,25.84
2023-05-15T00:31:28.187Z,25.77
2023-05-15T00:36:31.232Z,25.72
2023-05-15T00:41:37.738Z,25.66
2023-05-15T00:46:41.914Z,25.59
2023-05-15T00:51:44.835Z,25.54
2023-05-15T00:56:50.868Z,25.50
2023-05-15T01:01:53.665Z,25.44
2023-05-15T01:06:56.820Z,25.40
2023-05-15T01:12:03.328Z,25.35
2023-05-15T01:17:06.158Z,25.32
2023-05-15T01:22:38.552Z,25.24
2023-05-15T01:27:46.201Z,25.21
2023-05-15T01:32:55.125Z,25.16
2023-05-15T01:38:14.030Z,25.12
2023-05-15T01:43:23.002Z,25.08
2023-05-15T01:48:27.445Z,25.04
2023-05-15T01:53:33.857Z,25.02
2023-05-15T01:58:39.269Z,24.97
2023-05-15T02:03:44.134Z,24.92
2023-05-15T02:08:49.125Z,24.90
2023-05-15T02:13:55.905Z,24.87
2023-05-15T02:18:58.761Z,24.82
2023-05-15T02:24:01.619Z,24.78
2023-05-15T02:29:19.447Z,24.71
2023-05-15T02:34:29.203Z,24.70
2023-05-15T02:39:34.464Z,24.64
2023-05-15T02:44:39.930Z,24.62
2023-05-15T02:49:43.132Z,24.58
2023-05-15T02:54:45.990Z,24.56
2023-05-15T02:59:50.207Z,24.54
2023-05-15T03:04:53.065Z,24.52
2023-05-15T03:09:56.112Z,24.47
2023-05-15T03:15:00.751Z,24.46
2023-05-15T03:20:04.713Z,24.43
2023-05-15T03:25:08.915Z,24.42
2023-05-15T03:30:13.464Z,24.40
2023-05-15T03:35:16.625Z,24.39
2023-05-15T03:40:19.863Z,24.33
2023-05-15T03:45:24.237Z,24.29
2023-05-15T03:50:27.256Z,24.27
2023-05-15T03:55:30.182Z,24.25
2023-05-15T04:00:34.325Z,24.26
2023-05-15T04:05:37.206Z,24.24
2023-05-15T04:10:40.072Z,24.21
2023-05-15T04:15:44.290Z,24.20
2023-05-15T04:20:47.141Z,24.19
2023-05-15T04:25:49.984Z,24.17
2023-05-15T04:30:54.096Z,24.17
2023-05-15T04:35:56.904Z,24.15
2023-05-15T04:40:59.600Z,24.15
2023-05-15T04:46:03.835Z,24.13
2023-05-15T04:51:07.521Z,24.12
2023-05-15T04:56:10.810Z,24.10
2023-05-15T05:01:15.065Z,24.10
2023-05-15T05:06:17.910Z,24.09
2023-05-15T05:11:21.540Z,24.09
2023-05-15T05:16:25.727Z,24.09
2023-05-15T05:21:28.667Z,24.11
2023-05-15T05:26:31.484Z,24.10
2023-05-15T05:31:35.648Z,24.10
2023-05-15T05:36:38.710Z,24.13
2023-05-15T05:41:41.514Z,24.14
2023-05-15T05:46:46.337Z,24.16
2023-05-15T05:51:49.110Z,24.20
2023-05-15T05:56:51.830Z,24.22
2023-05-15T06:01:56.107Z,24.24
2023-05-15T06:06:58.829Z,24.27
2023-05-15T06:12:04.582Z,24.30
2023-05-15T06:17:09.294Z,24.32
2023-05-15T06:22:12.126Z,24.34
2023-05-15T06:27:14.890Z,24.35
2023-05-15T06:32:19.107Z,24.35
2023-05-15T06:37:22.089Z,24.35
2023-05-15T06:42:24.844Z,24.35
2023-05-15T06:47:29.006Z,24.36
2023-05-15T06:52:31.815Z,24.32
2023-05-15T06:57:34.812Z,23.13
2023-05-15T07:02:39.144Z,22.77
2023-05-15T07:07:42.735Z,22.56
2023-05-15T07:12:45.986Z,22.47
2023-05-15T07:17:50.363Z,22.30
2023-05-15T07:22:56.820Z,22.21
2023-05-15T07:28:00.072Z,22.14
2023-05-15T07:33:04.523Z,22.01
2023-05-15T07:38:08.055Z,21.77
2023-05-15T07:43:11.017Z,21.69
2023-05-15T07:48:20.615Z,21.56
2023-05-15T07:53:23.528Z,21.94
2023-05-15T07:58:27.362Z,22.20
2023-05-15T08:03:31.877Z,22.19
2023-05-15T08:08:34.849Z,22.30
2023-05-15T08:13:37.772Z,22.53
2023-05-15T08:18:41.997Z,22.47
2023-05-15T08:23:44.837Z,22.49
2023-05-15T08:28:47.612Z,22.40
2023-05-15T08:33:51.738Z,22.62
2023-05-15T08:38:54.508Z,22.69
2023-05-15T08:43:59.384Z,22.84
2023-05-15T08:49:12.464Z,22.67
2023-05-15T08:54:16.469Z,22.78
2023-05-15T08:59:19.561Z,22.75
2023-05-15T09:04:23.820Z,22.98
2023-05-15T09:09:29.269Z,23.04
2023-05-15T09:14:32.017Z,23.05
2023-05-15T09:19:37.224Z,23.04
2023-05-15T09:24:40.010Z,23.16
2023-05-15T09:29:42.939Z,23.26
2023-05-15T09:34:47.253Z,23.02
2023-05-15T09:39:50.355Z,23.25
2023-05-15T09:44:53.358Z,23.18
2023-05-15T09:49:57.734Z,23.32
2023-05-15T09:55:00.783Z,23.25
2023-05-15T10:00:10.274Z,23.28
2023-05-15T10:05:16.702Z,23.40
2023-05-15T10:10:19.569Z,23.39
2023-05-15T10:15:23.661Z,23.48
2023-05-15T10:20:28.322Z,23.59
2023-05-15T10:25:39.152Z,23.57
2023-05-15T10:30:43.531Z,23.49
2023-05-15T10:35:49.462Z,23.55
2023-05-15T10:40:59.732Z,23.62
2023-05-15T10:46:06.877Z,23.67
2023-05-15T10:51:17.095Z,23.68
2023-05-15T10:56:20.100Z,23.75
2023-05-15T11:01:36.217Z,23.73
2023-05-15T11:06:43.747Z,23.40
2023-05-15T11:11:58.003Z,23.34
2023-05-15T11:17:04.765Z,23.40
2023-05-15T11:22:20.688Z,23.30
2023-05-15T11:27:26.113Z,23.28
2023-05-15T11:32:49.235Z,23.57
2023-05-15T11:37:54.949Z,23.62
2023-05-15T11:43:05.914Z,23.70
2023-05-15T11:48:13.421Z,23.54
2023-05-15T11:53:18.001Z,23.74
2023-05-15T11:58:23.279Z,23.79
2023-05-15T12:03:27.925Z,23.62
2023-05-15T12:08:34.416Z,23.89
2023-05-15T12:13:37.589Z,23.96
2023-05-15T12:18:40.473Z,23.99
2023-05-15T12:24:03.538Z,24.02
2023-05-15T12:29:10.646Z,24.07
2023-05-15T12:34:13.892Z,24.08
2023-05-15T12:39:18.287Z,24.09
2023-05-15T12:44:22.043Z,24.12
2023-05-15T12:49:24.892Z,24.16
2023-05-15T12:54:29.041Z,23.90
2023-05-15T12:59:32.621Z,24.01
2023-05-15T13:04:36.002Z,24.14
2023-05-15T13:09:41.187Z,24.21
2023-05-15T13:14:44.248Z,24.25
2023-05-15T13:19:46.981Z,24.33
2023-05-15T13:24:53.001Z,24.50
2023-05-15T13:29:55.881Z,24.47
2023-05-15T13:34:58.726Z,24.51
2023-05-15T13:40:06.504Z,24.57
2023-05-15T13:45:10.664Z,24.61
2023-05-15T13:50:15.261Z,24.66
2023-05-15T13:55:21.472Z,24.59
2023-05-15T14:00:26.094Z,24.64
2023-05-15T14:05:29.271Z,24.65
2023-05-15T14:10:36.259Z,24.68
2023-05-15T14:15:39.329Z,24.67
2023-05-15T14:20:42.125Z,24.70
2023-05-15T14:25:46.441Z,24.68
2023-05-15T14:30:49.413Z,24.66
2023-05-15T14:35:52.586Z,24.68
2023-05-15T14:40:56.919Z,24.74
2023-05-15T14:45:59.830Z,24.84
2023-05-15T14:51:03.108Z,24.90
2023-05-15T14:56:07.631Z,24.93
2023-05-15T15:01:10.656Z,24.94
2023-05-15T15:06:13.616Z,24.98
2023-05-15T15:11:17.809Z,24.98
2023-05-15T15:16:20.625Z,25.01
2023-05-15T15:21:23.660Z,24.92
2023-05-15T15:26:28.996Z,25.02
2023-05-15T15:31:32.528Z,25.12
2023-05-15T15:36:37.627Z,25.13
2023-05-15T15:41:41.909Z,25.40
2023-05-15T15:46:44.943Z,25.48
2023-05-15T15:51:47.858Z,25.59
2023-05-15T15:56:52.625Z,25.65
2023-05-15T16:01:55.710Z,25.69
2023-05-15T16:06:58.597Z,25.83
2023-05-15T16:12:03.637Z,25.91
2023-05-15T16:17:06.559Z,26.14
2023-05-15T16:22:09.447Z,26.29
2023-05-15T16:27:13.532Z,26.31
2023-05-15T16:32:16.405Z,26.43
2023-05-15T16:37:19.456Z,26.37
2023-05-15T16:42:23.874Z,26.41
2023-05-15T16:47:26.694Z,26.56
2023-05-15T16:52:29.755Z,26.63
2023-05-15T16:57:33.950Z,26.66
2023-05-15T17:02:37.176Z,26.52
2023-05-15T17:07:40.183Z,26.48
2023-05-15T17:12:44.809Z,26.49
2023-05-15T17:17:47.714Z,26.49
2023-05-15T17:22:50.649Z,26.49
2023-05-15T17:27:55.048Z,26.52
2023-05-15T17:32:57.981Z,26.62
2023-05-15T17:38:00.877Z,26.68
2023-05-15T17:43:05.268Z,26.78
2023-05-15T17:48:08.186Z,26.82
2023-05-15T17:53:10.968Z,26.89
2023-05-15T17:58:15.283Z,26.94
2023-05-15T18:03:18.187Z,26.98
2023-05-15T18:08:21.157Z,26.99
2023-05-15T18:13:25.348Z,27.04
2023-05-15T18:18:28.232Z,26.96
2023-05-15T18:23:31.320Z,26.92
2023-05-15T18:28:35.506Z,26.89
2023-05-15T18:33:39.580Z,26.89
2023-05-15T18:38:42.562Z,26.93
2023-05-15T18:43:47.331Z,26.98
2023-05-15T18:48:50.194Z,26.96
2023-05-15T18:53:53.091Z,27.07
2023-05-15T18:58:57.274Z,27.05
2023-05-15T19:04:00.228Z,27.11
2023-05-15T19:09:03.303Z,27.10
2023-05-15T19:14:07.930Z,27.11
2023-05-15T19:19:11.123Z,27.10
2023-05-15T19:24:14.136Z,27.12
2023-05-15T19:29:18.283Z,27.16
2023-05-15T19:34:21.132Z,27.16
2023-05-15T19:39:24.018Z,27.16
2023-05-15T19:44:28.325Z,27.18
2023-05-15T19:49:31.141Z,27.20
2023-05-15T19:54:34.090Z,27.22
2023-05-15T19:59:38.643Z,27.24
2023-05-15T20:04:41.437Z,27.28
2023-05-15T20:09:44.213Z,27.30
2023-05-15T20:14:51.779Z,27.30
2023-05-15T20:19:54.676Z,27.31
2023-05-15T20:24:57.431Z,27.28
2023-05-15T20:30:03.416Z,27.33
2023-05-15T20:35:07.476Z,27.30
2023-05-15T20:40:12.811Z,27.30
2023-05-15T20:45:17.157Z,27.32
2023-05-15T20:50:20.735Z,27.37
2023-05-15T20:55:23.553Z,27.37
2023-05-15T21:00:28.198Z,27.41
2023-05-15T21:05:31.294Z,27.42
2023-05-15T21:10:34.034Z,27.45
2023-05-15T21:15:38.383Z,27.47
2023-05-15T21:20:41.232Z,27.49
2023-05-15T21:25:44.027Z,27.48
2023-05-15T21:30:48.298Z,27.50
2023-05-15T21:35:51.318Z,27.49
2023-05-15T21:40:54.439Z,27.51
2023-05-15T21:45:58.789Z,27.49
2023-05-15T21:51:01.756Z,27.43
2023-05-15T21:56:04.942Z,27.43
2023-05-15T22:01:09.226Z,27.39
2023-05-15T22:06:12.089Z,27.34
2023-05-15T22:11:15.337Z,27.33
2023-05-15T22:16:19.662Z,27.25
2023-05-15T22:21:22.473Z,27.12
2023-05-15T22:26:25.493Z,27.10
2023-05-15T22:31:29.665Z,27.08
2023-05-15T22:36:35.087Z,27.03
2023-05-15T22:41:37.834Z,27.03
2023-05-15T22:46:42.466Z,27.04
2023-05-15T22:51:45.287Z,26.99
2023-05-15T22:56:48.115Z,26.89
2023-05-15T23:01:52.487Z,26.90
2023-05-15T23:06:55.788Z,26.87
2023-05-15T23:11:58.541Z,26.76
2023-05-15T23:17:02.758Z,26.70
2023-05-15T23:22:05.828Z,26.62
2023-05-15T23:27:08.663Z,26.53
2023-05-15T23:32:13.150Z,26.52
2023-05-15T23:37:16.682Z,26.50
2023-05-15T23:42:19.538Z,26.41
2023-05-15T23:47:23.861Z,26.33
2023-05-15T23:52:26.708Z,26.28
2023-05-15T23:57:29.516Z,26.24
